Time;durP1;ratioP1;P1;durP2;ratioP2;P2;SDS_P1;SDS_P2;PMS_P1;PMS_P2;Temp;Humidity;BMP_temperature;BMP_pressure;BME280_temperature;BME280_humidity;BME280_pressure;Samples;Min_cycle;Max_cycle;Signal;HPM_P1;HPM_P2
2022/10/19 00:01:14;;;;;;;6.90;2.50;;;18.90;99.90;;;;;;5019074;28;20188;-73
2022/10/19 00:03:42;;;;;;;5.50;2.50;;;18.90;99.90;;;;;;5041130;28;20192;-73
2022/10/19 00:06:24;;;;;;;4.17;2.47;;;18.90;99.90;;;;;;5025056;28;20219;-74
2022/10/19 00:08:57;;;;;;;4.90;2.70;;;18.90;99.90;;;;;;5041930;28;20231;-74
2022/10/19 00:11:25;;;;;;;5.13;2.40;;;18.90;99.90;;;;;;5006042;28;20299;-74
2022/10/19 00:13:54;;;;;;;6.73;2.90;;;18.90;99.90;;;;;;5025524;28;20200;-73
2022/10/19 00:16:22;;;;;;;6.03;2.63;;;18.90;99.90;;;;;;5009714;28;20188;-73
2022/10/19 00:18:48;;;;;;;5.60;2.60;;;18.90;99.90;;;;;;5022150;28;20715;-74
2022/10/19 00:21:18;;;;;;;7.33;2.87;;;19.00;99.90;;;;;;5019934;28;20249;-73
2022/10/19 00:23:45;;;;;;;6.80;2.60;;;18.90;99.90;;;;;;5021115;28;20246;-73
2022/10/19 00:26:12;;;;;;;4.63;2.53;;;19.00;99.90;;;;;;5021815;28;20184;-73
2022/10/19 00:28:40;;;;;;;10.30;3.17;;;19.00;99.90;;;;;;5026234;28;20306;-73
2022/10/19 00:31:17;;;;;;;8.27;2.87;;;19.10;99.90;;;;;;5019980;28;20657;-73
2022/10/19 00:33:45;;;;;;;7.37;2.93;;;19.00;99.90;;;;;;5007106;28;20220;-73
2022/10/19 00:36:26;;;;;;;6.20;3.10;;;19.00;99.90;;;;;;5035425;28;20193;-73
2022/10/19 00:38:54;;;;;;;7.73;2.90;;;19.00;99.90;;;;;;5009840;28;20191;-74
2022/10/19 00:41:25;;;;;;;6.53;3.40;;;18.90;99.90;;;;;;5020121;28;20582;-72
2022/10/19 00:43:59;;;;;;;8.43;3.17;;;18.90;99.90;;;;;;5027857;28;20192;-74
2022/10/19 00:46:29;;;;;;;6.33;2.50;;;18.80;99.90;;;;;;5007888;28;20188;-74
2022/10/19 00:49:24;;;;;;;9.57;3.13;;;18.70;99.90;;;;;;5039358;28;20335;-74
2022/10/19 00:51:56;;;;;;;10.90;2.57;;;18.70;99.90;;;;;;5038149;28;20196;-74
2022/10/19 00:54:24;;;;;;;5.37;3.20;;;18.70;99.90;;;;;;5033498;28;20610;-74
2022/10/19 00:56:55;;;;;;;5.37;2.83;;;18.70;99.90;;;;;;5041571;28;20192;-73
2022/10/19 00:59:25;;;;;;;5.97;2.60;;;18.80;99.90;;;;;;5021702;28;20250;-74
2022/10/19 01:01:54;;;;;;;7.57;2.70;;;18.90;99.90;;;;;;5040396;28;20674;-74
2022/10/19 01:04:24;;;;;;;4.57;2.43;;;19.00;99.90;;;;;;5039440;28;20291;-74
2022/10/19 01:06:51;;;;;;;5.63;3.20;;;19.00;99.90;;;;;;5017132;28;20230;-74
2022/10/19 01:09:18;;;;;;;6.20;2.73;;;19.00;99.90;;;;;;5027427;28;20211;-73
2022/10/19 01:12:29;;;;;;;5.57;2.77;;;19.00;99.90;;;;;;5021008;28;20184;-74
2022/10/19 01:15:22;;;;;;;11.03;2.50;;;19.00;99.90;;;;;;4971378;28;20200;-74
2022/10/19 01:18:23;;;;;;;6.07;2.80;;;19.00;99.90;;;;;;5025962;28;20830;-73
2022/10/19 01:21:22;;;;;;;7.03;2.70;;;19.00;99.90;;;;;;5034329;28;20733;-73
2022/10/19 01:24:12;;;;;;;4.93;2.70;;;19.00;99.90;;;;;;5029912;28;20211;-73
2022/10/19 01:27:13;;;;;;;6.77;3.17;;;19.00;99.90;;;;;;5032315;28;20203;-74
2022/10/19 01:29:57;;;;;;;8.07;2.83;;;19.00;99.90;;;;;;5021250;28;20256;-74
2022/10/19 01:32:50;;;;;;;7.87;2.63;;;19.00;99.90;;;;;;5023177;28;20239;-74
2022/10/19 01:35:47;;;;;;;7.77;3.00;;;19.10;99.90;;;;;;5021753;28;20202;-73
2022/10/19 01:38:42;;;;;;;5.70;2.43;;;19.10;99.90;;;;;;5022933;28;20195;-74
2022/10/19 01:41:44;;;;;;;8.20;2.63;;;19.10;99.90;;;;;;5026947;28;20275;-73
2022/10/19 01:44:58;;;;;;;7.47;3.10;;;19.10;99.90;;;;;;5011622;28;20196;-73
2022/10/19 01:48:11;;;;;;;4.87;2.67;;;19.10;99.90;;;;;;5037468;28;20212;-74
2022/10/19 01:51:12;;;;;;;9.17;2.97;;;19.10;99.90;;;;;;5025463;28;20238;-74
2022/10/19 01:53:46;;;;;;;6.37;2.87;;;19.10;99.90;;;;;;5039451;28;20204;-74
2022/10/19 01:56:15;;;;;;;5.87;2.60;;;19.10;99.90;;;;;;5008559;28;20195;-73
2022/10/19 01:58:45;;;;;;;6.53;2.80;;;19.10;99.90;;;;;;5024227;28;20188;-73
2022/10/19 02:01:18;;;;;;;5.23;2.20;;;19.10;99.90;;;;;;5025248;28;20184;-73
2022/10/19 02:03:45;;;;;;;7.70;2.40;;;19.10;99.90;;;;;;5002687;28;20203;-73
2022/10/19 02:06:14;;;;;;;6.17;2.90;;;19.10;99.90;;;;;;5048171;28;20266;-73
2022/10/19 02:08:46;;;;;;;5.90;2.63;;;19.10;99.90;;;;;;5013670;28;20207;-73
2022/10/19 02:11:14;;;;;;;6.33;2.63;;;19.10;99.90;;;;;;5021644;28;20199;-73
2022/10/19 02:13:43;;;;;;;7.63;2.50;;;19.10;99.90;;;;;;5028849;28;20188;-73
2022/10/19 02:16:26;;;;;;;5.07;2.93;;;19.10;99.90;;;;;;5010250;28;20195;-74
2022/10/19 02:18:57;;;;;;;7.33;2.70;;;19.10;99.90;;;;;;5023885;28;20203;-73
2022/10/19 02:21:26;;;;;;;4.90;2.43;;;19.10;99.90;;;;;;5008849;28;20718;-74
2022/10/19 02:23:53;;;;;;;8.70;2.93;;;19.10;99.90;;;;;;5037602;28;20307;-73
2022/10/19 02:26:21;;;;;;;6.30;2.60;;;19.00;99.90;;;;;;5043407;28;20196;-73
2022/10/19 02:28:49;;;;;;;5.83;2.40;;;19.00;99.90;;;;;;5036180;28;20729;-74
2022/10/19 02:31:17;;;;;;;4.60;2.50;;;19.00;99.90;;;;;;5020315;28;20205;-74
2022/10/19 02:33:43;;;;;;;4.03;2.47;;;19.00;99.90;;;;;;5043754;28;20188;-74
2022/10/19 02:36:10;;;;;;;3.90;2.30;;;18.90;99.90;;;;;;5033114;28;20185;-74
2022/10/19 02:38:36;;;;;;;10.67;2.73;;;18.90;99.90;;;;;;5029551;28;20204;-72
2022/10/19 02:41:56;;;;;;;5.30;2.43;;;18.90;99.90;;;;;;5025265;28;20196;-74
2022/10/19 02:44:33;;;;;;;7.13;2.77;;;18.90;99.90;;;;;;5011074;28;20253;-74
2022/10/19 02:47:16;;;;;;;5.23;2.67;;;18.90;99.90;;;;;;5046042;28;20242;-72
2022/10/19 02:49:44;;;;;;;6.73;2.70;;;18.80;99.90;;;;;;5028913;28;20223;-74
2022/10/19 02:52:12;;;;;;;6.47;2.63;;;18.80;99.90;;;;;;5061124;28;20182;-74
2022/10/19 02:54:41;;;;;;;5.60;2.40;;;18.80;99.90;;;;;;5050769;28;20207;-74
2022/10/19 02:57:23;;;;;;;4.73;2.50;;;18.80;99.90;;;;;;5052213;28;20306;-74
2022/10/19 02:59:51;;;;;;;4.57;2.77;;;18.70;99.90;;;;;;5033206;28;20184;-74
2022/10/19 03:02:20;;;;;;;5.30;2.40;;;18.70;99.90;;;;;;5036443;28;20537;-74
2022/10/19 03:04:46;;;;;;;5.97;2.80;;;18.70;99.90;;;;;;5020876;28;20218;-74
2022/10/19 03:07:16;;;;;;;11.07;2.90;;;18.60;99.90;;;;;;5029063;28;20681;-74
2022/10/19 03:09:43;;;;;;;6.33;2.60;;;18.60;99.90;;;;;;5031228;28;20656;-74
2022/10/19 03:12:11;;;;;;;7.90;3.00;;;18.60;99.90;;;;;;5050298;28;20736;-74
2022/10/19 03:14:38;;;;;;;5.53;2.57;;;18.60;99.90;;;;;;5047895;28;20176;-74
2022/10/19 03:17:05;;;;;;;8.73;2.63;;;18.60;99.90;;;;;;5030347;28;20191;-74
2022/10/19 03:19:33;;;;;;;4.73;2.80;;;18.60;99.90;;;;;;5047083;28;20188;-74
2022/10/19 03:21:59;;;;;;;5.50;2.40;;;18.60;99.90;;;;;;5050044;28;20191;-74
2022/10/19 03:24:26;;;;;;;6.07;2.17;;;18.60;99.90;;;;;;5016454;28;20192;-74
2022/10/19 03:26:52;;;;;;;4.73;2.60;;;18.50;99.90;;;;;;5038930;28;20654;-74
2022/10/19 03:29:18;;;;;;;8.20;3.07;;;18.60;99.90;;;;;;5050138;28;20570;-74
2022/10/19 03:31:45;;;;;;;5.60;2.63;;;18.50;99.90;;;;;;5010029;28;20181;-72
2022/10/19 03:34:11;;;;;;;5.93;2.70;;;18.50;99.90;;;;;;5011660;28;20173;-74
2022/10/19 03:36:39;;;;;;;7.60;2.97;;;18.40;99.90;;;;;;5023492;28;20192;-74
2022/10/19 03:39:10;;;;;;;4.17;2.27;;;18.30;99.90;;;;;;5025786;28;22235;-74
2022/10/19 03:41:38;;;;;;;6.83;2.77;;;18.30;99.90;;;;;;5019026;28;20972;-72
2022/10/19 03:44:07;;;;;;;7.83;2.73;;;18.20;99.90;;;;;;5020021;28;20198;-74
2022/10/19 03:46:35;;;;;;;5.83;2.60;;;18.20;99.90;;;;;;5015416;28;20283;-74
2022/10/19 03:49:02;;;;;;;5.20;2.67;;;18.20;99.90;;;;;;5023275;28;20226;-72
2022/10/19 03:51:30;;;;;;;11.57;2.97;;;18.20;99.90;;;;;;5027889;28;20226;-74
2022/10/19 03:54:12;;;;;;;11.73;3.20;;;18.10;99.90;;;;;;5025965;28;20183;-74
2022/10/19 03:56:38;;;;;;;5.70;3.20;;;18.10;99.90;;;;;;5022431;28;20283;-74
2022/10/19 03:59:06;;;;;;;6.80;3.00;;;18.10;99.90;;;;;;5046118;28;20278;-74
2022/10/19 04:01:36;;;;;;;7.37;2.50;;;18.10;99.90;;;;;;5021171;28;20203;-74
2022/10/19 04:04:08;;;;;;;3.67;2.20;;;18.10;99.90;;;;;;5024097;28;20200;-74
2022/10/19 04:06:41;;;;;;;5.37;2.70;;;18.10;99.90;;;;;;5045065;28;20648;-74
2022/10/19 04:09:11;;;;;;;7.17;2.50;;;18.10;99.90;;;;;;5050906;28;20241;-74
2022/10/19 04:11:38;;;;;;;4.37;2.67;;;18.10;99.90;;;;;;5017541;28;20211;-74
2022/10/19 04:14:09;;;;;;;13.60;3.00;;;18.10;99.90;;;;;;5032599;28;20199;-74
2022/10/19 04:16:35;;;;;;;28.67;6.30;;;18.00;99.90;;;;;;5030611;28;20234;-74
2022/10/19 04:19:01;;;;;;;174.57;21.27;;;18.00;99.90;;;;;;5029905;28;20191;-74
2022/10/19 04:21:39;;;;;;;11.30;4.00;;;18.00;99.90;;;;;;5025950;28;20642;-74
2022/10/19 04:24:13;;;;;;;9.50;3.00;;;18.00;99.90;;;;;;5027387;28;20216;-74
2022/10/19 04:26:48;;;;;;;10.33;3.30;;;18.00;99.90;;;;;;5010455;28;20180;-74
2022/10/19 04:29:20;;;;;;;7.00;3.13;;;18.10;99.90;;;;;;5023248;28;20227;-74
2022/10/19 04:31:52;;;;;;;6.40;2.80;;;18.10;99.90;;;;;;5036412;28;20188;-74
2022/10/19 04:34:19;;;;;;;6.47;2.80;;;18.10;99.90;;;;;;5029220;28;20188;-74
2022/10/19 04:36:45;;;;;;;9.23;3.30;;;18.10;99.90;;;;;;5045782;28;20223;-74
2022/10/19 04:39:12;;;;;;;45.30;7.80;;;18.20;99.90;;;;;;5043553;28;20247;-72
2022/10/19 04:41:39;;;;;;;11.90;3.93;;;18.20;99.90;;;;;;5033206;28;20704;-74
2022/10/19 04:44:05;;;;;;;8.77;3.20;;;18.20;99.90;;;;;;5012470;28;20183;-74
2022/10/19 04:46:32;;;;;;;5.97;3.00;;;18.30;99.90;;;;;;5045284;28;20558;-73
2022/10/19 04:48:59;;;;;;;6.70;3.30;;;18.30;99.90;;;;;;5030373;28;20208;-73
2022/10/19 04:51:26;;;;;;;10.37;3.40;;;18.40;99.90;;;;;;5039208;28;20196;-72
2022/10/19 04:53:55;;;;;;;6.50;3.00;;;18.40;99.90;;;;;;5026745;28;20586;-73
2022/10/19 04:56:25;;;;;;;11.27;3.80;;;18.50;99.90;;;;;;5025697;28;20184;-72
2022/10/19 04:58:56;;;;;;;12.60;3.63;;;18.50;99.90;;;;;;5029841;28;20277;-73
2022/10/19 05:01:24;;;;;;;7.87;3.20;;;18.60;99.90;;;;;;5011996;28;20238;-74
2022/10/19 05:04:00;;;;;;;6.13;3.00;;;18.60;99.90;;;;;;5035104;28;20180;-74
2022/10/19 05:06:27;;;;;;;9.33;3.93;;;18.70;99.90;;;;;;5044257;28;20199;-74
2022/10/19 05:08:55;;;;;;;8.70;3.20;;;18.80;99.90;;;;;;5037165;28;20322;-72
2022/10/19 05:11:21;;;;;;;9.63;3.63;;;18.80;99.90;;;;;;5027401;28;20188;-74
2022/10/19 05:13:49;;;;;;;6.00;3.17;;;18.90;99.90;;;;;;5010324;28;20286;-74
2022/10/19 05:16:22;;;;;;;7.33;3.70;;;19.00;99.90;;;;;;5023560;28;20211;-72
2022/10/19 05:18:58;;;;;;;19.40;3.60;;;19.00;99.90;;;;;;5024684;28;20249;-74
2022/10/19 05:21:28;;;;;;;6.03;2.83;;;19.10;99.90;;;;;;5029086;28;20218;-72
2022/10/19 05:23:56;;;;;;;6.73;2.93;;;19.10;99.90;;;;;;5019143;28;20274;-73
2022/10/19 05:26:26;;;;;;;9.30;3.40;;;19.20;99.90;;;;;;5016547;28;20568;-72
2022/10/19 05:29:00;;;;;;;12.53;2.90;;;19.30;99.90;;;;;;5023639;28;20234;-72
2022/10/19 05:31:30;;;;;;;4.73;2.50;;;19.40;99.90;;;;;;5006541;28;20193;-72
2022/10/19 05:33:58;;;;;;;6.43;2.70;;;19.50;99.90;;;;;;5031624;28;20679;-72
2022/10/19 05:36:28;;;;;;;8.73;2.70;;;19.50;99.90;;;;;;5031870;28;20560;-72
2022/10/19 05:38:57;;;;;;;7.30;2.93;;;19.60;99.90;;;;;;5021822;28;20545;-72
2022/10/19 05:41:25;;;;;;;7.37;2.90;;;19.60;99.90;;;;;;5021682;28;20200;-72
2022/10/19 05:43:58;;;;;;;7.50;2.70;;;19.60;99.90;;;;;;5022366;28;20196;-72
2022/10/19 05:46:27;;;;;;;7.37;2.90;;;19.70;99.90;;;;;;5025338;28;20273;-72
2022/10/19 05:48:56;;;;;;;7.13;3.10;;;19.80;99.90;;;;;;5022368;28;20270;-72
2022/10/19 05:51:25;;;;;;;8.93;2.70;;;19.80;99.90;;;;;;5034761;28;20201;-72
2022/10/19 05:53:53;;;;;;;7.07;2.80;;;19.80;99.90;;;;;;5014297;28;20203;-72
2022/10/19 05:56:24;;;;;;;5.43;2.73;;;19.80;99.90;;;;;;5037000;28;20191;-73
2022/10/19 05:58:51;;;;;;;5.93;2.70;;;19.90;99.90;;;;;;5042271;28;20242;-73
2022/10/19 06:01:19;;;;;;;9.47;3.23;;;19.90;99.90;;;;;;5037874;28;20213;-73
2022/10/19 06:03:49;;;;;;;10.80;3.47;;;19.90;99.90;;;;;;5031872;28;20187;-73
2022/10/19 06:06:15;;;;;;;11.43;3.10;;;20.00;99.90;;;;;;5032219;28;20770;-74
2022/10/19 06:08:42;;;;;;;5.63;2.63;;;20.00;99.90;;;;;;5041864;28;20212;-73
2022/10/19 06:11:11;;;;;;;7.60;2.90;;;20.00;99.90;;;;;;5024633;28;20622;-73
2022/10/19 06:13:39;;;;;;;7.63;2.80;;;20.10;99.90;;;;;;5027483;28;20175;-72
2022/10/19 06:16:07;;;;;;;7.73;2.80;;;20.20;99.90;;;;;;5036655;28;20191;-72
2022/10/19 06:18:34;;;;;;;7.93;2.50;;;20.20;99.90;;;;;;5045649;28;20196;-73
2022/10/19 06:21:07;;;;;;;7.27;2.43;;;20.30;99.90;;;;;;5025534;28;20184;-72
2022/10/19 06:23:35;;;;;;;7.57;2.50;;;20.30;99.90;;;;;;5027241;28;20210;-73
2022/10/19 06:26:10;;;;;;;8.60;2.70;;;20.30;99.90;;;;;;5032258;28;20195;-73
2022/10/19 06:28:39;;;;;;;6.80;2.47;;;20.20;99.90;;;;;;5025664;28;20271;-73
2022/10/19 06:31:06;;;;;;;7.33;2.87;;;20.20;99.90;;;;;;5020741;28;20271;-71
2022/10/19 06:33:33;;;;;;;8.00;2.30;;;20.20;99.90;;;;;;5043425;28;20189;-73
2022/10/19 06:36:11;;;;;;;6.77;2.70;;;20.10;99.90;;;;;;5026732;28;20203;-73
2022/10/19 06:38:38;;;;;;;6.30;3.03;;;20.20;99.90;;;;;;5027138;28;20581;-73
2022/10/19 06:41:05;;;;;;;8.20;2.50;;;20.20;99.90;;;;;;5009939;28;20188;-73
2022/10/19 06:43:32;;;;;;;5.77;2.30;;;20.30;99.90;;;;;;5044987;28;20275;-74
2022/10/19 06:46:02;;;;;;;7.40;2.90;;;20.30;99.90;;;;;;5020535;28;20649;-72
2022/10/19 06:48:28;;;;;;;6.17;2.37;;;20.60;99.90;;;;;;5030043;28;20303;-73
2022/10/19 06:51:01;;;;;;;6.87;2.50;;;20.60;99.90;;;;;;5047235;28;20172;-73
2022/10/19 06:53:28;;;;;;;4.05;2.10;;;20.70;99.90;;;;;;5029538;28;20247;-74
2022/10/19 06:56:00;;;;;;;8.68;2.63;;;20.80;99.90;;;;;;5030413;28;20266;-73
2022/10/19 06:58:27;;;;;;;7.65;2.38;;;20.80;99.90;;;;;;5025980;28;20196;-74
2022/10/19 07:01:01;;;;;;;3.92;2.28;;;20.90;99.90;;;;;;5041337;28;20456;-74
2022/10/19 07:03:28;;;;;;;5.13;2.40;;;21.10;99.90;;;;;;5042159;28;20534;-73
2022/10/19 07:05:58;;;;;;;5.30;2.27;;;21.10;99.90;;;;;;5020218;28;20211;-74
2022/10/19 07:08:28;;;;;;;8.53;2.27;;;21.00;99.90;;;;;;5036361;28;20205;-74
2022/10/19 07:11:02;;;;;;;5.95;2.25;;;20.90;99.90;;;;;;5026910;28;20181;-74
2022/10/19 07:13:29;;;;;;;5.72;2.00;;;20.80;99.90;;;;;;5043142;28;20529;-74
2022/10/19 07:16:00;;;;;;;7.13;2.10;;;20.70;99.90;;;;;;5026815;28;20723;-74
2022/10/19 07:18:27;;;;;;;6.67;2.50;;;20.60;99.90;;;;;;5044756;28;20728;-73
2022/10/19 07:20:59;;;;;;;5.55;2.30;;;20.60;99.90;;;;;;5030110;28;20425;-73
2022/10/19 07:23:28;;;;;;;6.93;2.47;;;20.60;99.90;;;;;;5024607;28;20673;-73
2022/10/19 07:26:00;;;;;;;6.05;2.42;;;20.60;99.90;;;;;;5025168;28;20192;-74
2022/10/19 07:28:28;;;;;;;9.13;2.30;;;20.70;99.90;;;;;;5027068;28;20200;-73
2022/10/19 07:30:55;;;;;;;5.30;2.53;;;20.70;99.90;;;;;;5030927;28;20193;-74
2022/10/19 07:33:21;;;;;;;3.47;2.10;;;20.60;99.90;;;;;;5042010;28;20657;-74
2022/10/19 07:35:47;;;;;;;7.47;2.70;;;20.60;99.90;;;;;;5030657;28;20965;-73
2022/10/19 07:38:14;;;;;;;5.13;1.90;;;20.70;99.90;;;;;;5038467;28;20188;-73
2022/10/19 07:40:40;;;;;;;8.03;2.67;;;20.70;99.90;;;;;;5035830;28;20274;-73
2022/10/19 07:43:06;;;;;;;6.73;2.63;;;20.80;99.90;;;;;;5020454;28;20590;-73
2022/10/19 07:45:33;;;;;;;6.47;2.47;;;21.00;99.90;;;;;;5022691;28;20192;-73
2022/10/19 07:47:59;;;;;;;6.97;2.50;;;21.10;99.90;;;;;;5037391;28;20219;-73
2022/10/19 07:50:29;;;;;;;4.85;2.55;;;21.10;99.90;;;;;;5028567;28;20180;-73
2022/10/19 07:52:57;;;;;;;7.63;2.40;;;21.10;99.90;;;;;;5024122;28;20192;-73
2022/10/19 07:55:23;;;;;;;5.20;2.10;;;21.20;99.90;;;;;;5024284;28;20265;-73
2022/10/19 07:57:50;;;;;;;9.43;2.78;;;21.20;99.90;;;;;;5037965;28;20191;-72
2022/10/19 08:00:17;;;;;;;7.20;2.53;;;21.20;99.90;;;;;;5023476;28;20188;-72
2022/10/19 08:02:44;;;;;;;4.50;2.22;;;21.20;99.90;;;;;;5020829;28;20191;-72
2022/10/19 08:05:10;;;;;;;7.50;2.20;;;21.20;99.90;;;;;;5041288;28;20196;-71
2022/10/19 08:07:37;;;;;;;8.18;2.47;;;21.20;99.90;;;;;;5024233;28;20227;-72
2022/10/19 08:10:04;;;;;;;6.78;2.67;;;21.30;99.90;;;;;;5022487;28;20184;-71
2022/10/19 08:12:36;;;;;;;6.15;2.30;;;21.40;99.90;;;;;;5006725;28;20869;-71
2022/10/19 08:15:06;;;;;;;7.45;2.50;;;21.40;99.90;;;;;;5021243;28;20196;-71
2022/10/19 08:17:35;;;;;;;6.05;2.75;;;21.40;99.90;;;;;;5026755;28;20211;-72
2022/10/19 08:20:05;;;;;;;7.13;2.80;;;21.50;99.90;;;;;;5021500;28;20206;-72
2022/10/19 08:22:31;;;;;;;6.65;2.42;;;21.60;99.90;;;;;;5027215;28;20199;-72
2022/10/19 08:24:57;;;;;;;3.90;2.25;;;21.70;99.90;;;;;;5036131;28;20669;-72
2022/10/19 08:27:24;;;;;;;6.97;2.67;;;21.70;99.90;;;;;;5016202;28;20192;-72
2022/10/19 08:29:50;;;;;;;7.85;2.63;;;21.80;99.90;;;;;;5025095;28;20196;-72
2022/10/19 08:32:18;;;;;;;8.73;2.45;;;21.90;99.90;;;;;;5005714;28;20200;-72
2022/10/19 08:34:44;;;;;;;7.63;2.50;;;21.80;99.90;;;;;;5022003;28;21045;-72
2022/10/19 08:37:11;;;;;;;10.27;2.65;;;21.80;99.90;;;;;;5022260;28;20310;-72
2022/10/19 08:39:37;;;;;;;6.18;2.33;;;21.90;99.90;;;;;;5019571;28;20641;-72
2022/10/19 08:42:28;;;;;;;9.05;2.38;;;22.00;99.90;;;;;;5018209;28;20350;-72
2022/10/19 08:45:26;;;;;;;5.35;2.30;;;22.00;99.90;;;;;;5016106;28;20275;-72
2022/10/19 08:48:35;;;;;;;7.10;2.08;;;22.10;99.90;;;;;;4994013;28;20303;-71
2022/10/19 08:51:05;;;;;;;9.93;2.63;;;22.30;99.90;;;;;;5037800;28;20191;-72
2022/10/19 08:53:34;;;;;;;10.02;2.63;;;22.40;99.90;;;;;;5021656;28;20227;-71
2022/10/19 08:56:33;;;;;;;7.32;2.08;;;22.50;99.90;;;;;;5026549;28;20214;-72
2022/10/19 08:59:16;;;;;;;10.57;2.33;;;22.70;99.90;;;;;;5036002;28;20196;-73
2022/10/19 09:02:09;;;;;;;6.75;2.65;;;22.70;99.90;;;;;;5023069;28;20542;-73
2022/10/19 09:04:40;;;;;;;7.55;2.72;;;22.70;99.90;;;;;;5018903;28;20185;-73
2022/10/19 09:07:21;;;;;;;4.47;2.15;;;22.70;99.90;;;;;;5036205;28;20521;-73
2022/10/19 09:10:14;;;;;;;7.90;2.28;;;22.80;99.90;;;;;;5021134;28;20226;-73
2022/10/19 09:13:02;;;;;;;10.77;2.50;;;22.90;99.90;;;;;;5028962;28;20220;-73
2022/10/19 09:15:40;;;;;;;5.38;2.08;;;22.80;99.90;;;;;;5023796;28;20823;-73
2022/10/19 09:18:13;;;;;;;4.80;2.75;;;22.80;99.90;;;;;;5040074;28;20287;-73
2022/10/19 09:20:46;;;;;;;7.88;2.58;;;22.80;99.90;;;;;;5025783;28;20191;-73
2022/10/19 09:23:49;;;;;;;8.95;2.67;;;22.90;99.90;;;;;;5001062;28;20677;-73
2022/10/19 09:26:20;;;;;;;7.55;2.45;;;22.90;99.90;;;;;;5037391;28;20193;-73
2022/10/19 09:29:03;;;;;;;7.15;2.63;;;23.00;99.90;;;;;;5020227;28;20212;-73
2022/10/19 09:31:42;;;;;;;5.20;2.53;;;22.90;99.90;;;;;;5005024;28;20518;-73
2022/10/19 09:34:40;;;;;;;8.90;2.75;;;23.00;99.90;;;;;;5018140;28;20188;-73
2022/10/19 09:37:06;;;;;;;6.60;2.70;;;23.20;99.90;;;;;;5022387;28;20212;-73
2022/10/19 09:39:34;;;;;;;6.10;2.47;;;23.30;99.90;;;;;;5027414;28;20194;-72
2022/10/19 09:42:36;;;;;;;7.88;2.45;;;23.40;99.90;;;;;;5040422;28;20279;-73
2022/10/19 09:45:46;;;;;;;8.45;2.33;;;23.60;99.90;;;;;;4999486;28;20202;-72
2022/10/19 09:48:48;;;;;;;7.30;2.42;;;23.70;99.90;;;;;;5015300;28;20219;-73
2022/10/19 09:51:16;;;;;;;10.38;2.72;;;23.50;99.90;;;;;;5013170;28;20192;-73
2022/10/19 09:54:00;;;;;;;9.15;2.78;;;23.30;99.90;;;;;;5021285;28;20852;-73
2022/10/19 09:56:27;;;;;;;10.98;3.17;;;23.10;99.90;;;;;;5019535;28;20203;-73
2022/10/19 09:58:57;;;;;;;7.38;3.15;;;23.00;99.90;;;;;;5043561;28;20261;-73
2022/10/19 10:01:39;;;;;;;8.40;2.75;;;23.10;99.90;;;;;;5027454;28;20562;-73
2022/10/19 10:04:17;;;;;;;5.65;2.35;;;23.30;99.90;;;;;;5041507;28;20257;-72
2022/10/19 10:06:47;;;;;;;5.38;2.30;;;23.50;99.90;;;;;;5006915;28;22681;-72
2022/10/19 10:09:18;;;;;;;5.57;2.22;;;23.60;99.90;;;;;;5023973;28;20223;-73
2022/10/19 10:11:49;;;;;;;4.60;2.28;;;23.90;99.90;;;;;;5024109;28;20181;-73
2022/10/19 10:14:19;;;;;;;5.32;2.00;;;24.00;99.90;;;;;;5015556;28;20218;-73
2022/10/19 10:16:46;;;;;;;5.10;2.17;;;24.20;99.90;;;;;;5040691;28;20202;-72
2022/10/19 10:19:15;;;;;;;8.55;2.22;;;24.60;99.90;;;;;;5037224;28;20241;-73
2022/10/19 10:21:56;;;;;;;8.75;2.20;;;25.10;99.90;;;;;;5013049;28;20188;-71
2022/10/19 10:24:30;;;;;;;3.78;2.40;;;26.70;99.90;;;;;;5043276;28;20196;-73
2022/10/19 10:27:04;;;;;;;6.63;2.70;;;26.80;99.90;;;;;;5025764;28;20195;-74
2022/10/19 10:29:40;;;;;;;7.43;2.83;;;26.80;99.90;;;;;;5043757;28;20687;-74
2022/10/19 10:32:15;;;;;;;11.60;2.88;;;26.70;99.90;;;;;;5044536;28;20283;-73
2022/10/19 10:34:57;;;;;;;6.78;3.17;;;26.30;99.90;;;;;;5046903;28;20184;-73
2022/10/19 10:37:45;;;;;;;7.32;2.45;;;25.70;99.90;;;;;;5024149;28;20378;-74
2022/10/19 10:40:29;;;;;;;6.25;2.55;;;25.10;99.90;;;;;;5027804;28;20184;-73
2022/10/19 10:43:07;;;;;;;7.20;2.75;;;25.40;99.90;;;;;;5035423;28;20199;-74
2022/10/19 10:45:45;;;;;;;8.38;2.72;;;25.50;99.90;;;;;;5047635;28;20181;-74
2022/10/19 10:48:30;;;;;;;8.88;3.10;;;25.70;99.90;;;;;;5032342;28;20212;-72
2022/10/19 10:50:59;;;;;;;8.30;2.60;;;25.90;99.90;;;;;;5021296;28;20185;-74
2022/10/19 10:53:42;;;;;;;11.32;3.35;;;26.00;99.90;;;;;;5032223;28;20192;-73
2022/10/19 10:56:28;;;;;;;7.55;3.17;;;25.40;99.90;;;;;;5007403;28;20188;-74
2022/10/19 10:59:13;;;;;;;8.00;2.67;;;24.90;99.90;;;;;;5028059;28;20684;-73
2022/10/19 11:02:16;;;;;;;6.72;2.60;;;24.70;99.90;;;;;;5024051;28;20197;-74
2022/10/19 11:04:53;;;;;;;6.28;2.65;;;24.60;99.90;;;;;;5009028;28;20212;-74
2022/10/19 11:07:24;;;;;;;9.20;2.55;;;24.50;99.90;;;;;;5029005;28;20183;-74
2022/10/19 11:10:08;;;;;;;6.78;2.90;;;24.40;99.90;;;;;;5030349;28;20216;-72
2022/10/19 11:13:03;;;;;;;9.18;2.75;;;24.40;99.90;;;;;;5029707;28;20211;-73
2022/10/19 11:16:01;;;;;;;8.90;3.03;;;24.40;99.90;;;;;;5014097;28;20241;-73
2022/10/19 11:18:41;;;;;;;6.15;2.97;;;24.40;99.90;;;;;;5044421;28;20230;-73
2022/10/19 11:21:31;;;;;;;7.18;2.88;;;24.30;99.90;;;;;;5022924;28;20191;-73
2022/10/19 11:24:41;;;;;;;10.23;3.20;;;24.10;99.90;;;;;;5039770;28;20180;-73
2022/10/19 11:27:48;;;;;;;6.57;2.60;;;23.80;99.90;;;;;;5030118;28;20625;-73
2022/10/19 11:30:22;;;;;;;8.07;3.25;;;23.70;99.90;;;;;;5026048;28;20720;-73
2022/10/19 11:33:31;;;;;;;8.35;2.97;;;23.60;99.90;;;;;;5030405;28;20195;-73
2022/10/19 11:36:08;;;;;;;10.48;2.75;;;23.40;99.90;;;;;;5011893;28;20655;-73
2022/10/19 11:39:07;;;;;;;9.80;3.20;;;23.30;99.90;;;;;;5027337;28;20191;-73
2022/10/19 11:42:10;;;;;;;10.50;3.20;;;23.30;99.90;;;;;;5031289;28;20522;-73
2022/10/19 11:45:01;;;;;;;6.82;3.08;;;23.20;99.90;;;;;;5044803;28;20266;-73
2022/10/19 11:48:00;;;;;;;7.22;2.53;;;23.10;99.90;;;;;;5027225;28;20207;-74
2022/10/19 11:50:47;;;;;;;8.68;3.10;;;23.10;99.90;;;;;;5043769;28;20181;-74
2022/10/19 11:53:52;;;;;;;8.93;2.90;;;23.00;99.90;;;;;;5028538;28;20269;-73
2022/10/19 11:56:40;;;;;;;12.20;2.80;;;22.90;99.90;;;;;;5018610;28;20188;-74
2022/10/19 12:00:00;;;;;;;8.00;3.00;;;22.90;99.90;;;;;;5041187;28;20208;-73
2022/10/19 12:03:09;;;;;;;7.30;3.58;;;22.80;99.90;;;;;;5006451;28;20196;-74
2022/10/19 12:06:11;;;;;;;6.88;3.08;;;22.70;99.90;;;;;;5013457;28;20212;-73
2022/10/19 12:08:52;;;;;;;9.02;2.78;;;22.70;99.90;;;;;;5045492;28;20681;-73
2022/10/19 12:12:05;;;;;;;6.50;2.58;;;22.70;99.90;;;;;;5045419;28;20191;-73
2022/10/19 12:14:41;;;;;;;7.57;2.67;;;22.70;99.90;;;;;;5027463;28;20215;-73
2022/10/19 12:17:17;;;;;;;10.45;2.88;;;22.60;99.90;;;;;;5018901;28;20192;-73
2022/10/19 12:19:57;;;;;;;7.78;2.88;;;22.50;99.90;;;;;;5027395;28;20202;-73
2022/10/19 12:22:29;;;;;;;10.68;2.80;;;22.50;99.90;;;;;;5030588;28;20184;-72
2022/10/19 12:24:59;;;;;;;7.22;3.08;;;22.50;99.90;;;;;;5016516;28;20188;-73
2022/10/19 12:27:48;;;;;;;14.80;3.13;;;22.30;99.90;;;;;;5045345;28;20188;-74
2022/10/19 12:30:21;;;;;;;7.15;3.22;;;22.10;99.90;;;;;;5039720;28;20899;-74
2022/10/19 12:33:32;;;;;;;14.15;3.60;;;22.00;99.90;;;;;;5021385;28;20222;-74
2022/10/19 12:36:47;;;;;;;12.75;3.30;;;21.80;99.90;;;;;;5027735;28;20218;-74
2022/10/19 12:39:38;;;;;;;10.40;4.03;;;21.70;99.90;;;;;;5025765;28;20365;-74
2022/10/19 12:42:17;;;;;;;12.63;4.55;;;21.40;99.90;;;;;;5019458;28;20564;-73
2022/10/19 12:45:25;;;;;;;13.25;4.10;;;21.30;99.90;;;;;;5011256;28;20562;-74
2022/10/19 12:48:17;;;;;;;14.10;4.80;;;21.20;99.90;;;;;;5002478;28;20216;-73
2022/10/19 12:50:52;;;;;;;11.32;4.55;;;21.20;99.90;;;;;;5038584;28;20587;-71
2022/10/19 12:53:24;;;;;;;13.63;4.55;;;21.10;99.90;;;;;;5026098;28;20579;-73
2022/10/19 12:56:16;;;;;;;13.68;4.50;;;21.10;99.90;;;;;;5042854;28;20231;-72
2022/10/19 12:58:58;;;;;;;12.00;4.35;;;21.00;99.90;;;;;;5021877;28;20192;-73
2022/10/19 13:01:34;;;;;;;10.68;4.10;;;20.80;99.90;;;;;;5039076;28;20199;-73
2022/10/19 13:04:15;;;;;;;11.00;3.60;;;20.70;99.90;;;;;;5021120;28;20237;-73
2022/10/19 13:06:57;;;;;;;11.73;4.07;;;20.70;99.90;;;;;;5042478;28;20199;-73
2022/10/19 13:09:30;;;;;;;13.87;4.13;;;20.60;99.90;;;;;;5028211;28;20243;-72
2022/10/19 13:12:15;;;;;;;14.00;4.30;;;20.60;99.90;;;;;;5005819;28;20195;-73
2022/10/19 13:14:58;;;;;;;16.73;4.10;;;20.60;99.90;;;;;;5021868;28;20266;-73
2022/10/19 13:17:51;;;;;;;11.27;4.00;;;20.60;99.90;;;;;;5023182;28;20189;-73
2022/10/19 13:20:17;;;;;;;10.47;3.97;;;20.60;99.90;;;;;;5024332;28;20173;-73
2022/10/19 13:22:58;;;;;;;13.93;4.33;;;20.60;99.90;;;;;;5026513;28;20180;-73
2022/10/19 13:25:31;;;;;;;11.97;4.23;;;20.70;99.90;;;;;;5044964;28;20183;-73
2022/10/19 13:28:08;;;;;;;11.47;3.83;;;20.60;99.90;;;;;;5029701;28;20207;-72
2022/10/19 13:30:36;;;;;;;8.73;3.60;;;20.60;99.90;;;;;;5044769;28;20210;-73